Time,TemperatureF,DewpointF,PressureIn,WindDirection,WindDirectionDegrees,WindSpeedMPH,WindSpeedGustMPH,Humidity,HourlyPrecipIn,Conditions,Clouds,dailyrainin,SolarRadiationWatts/m^2,SoftwareType,DateUTC
2013-04-28 00:03:00,64.0,59.0,-100.00,ESE,115,1.0,3.0,83,0.00,,,-99.99,0.000000,,2013-04-28 10:03:00,
2013-04-28 00:12:00,64.0,59.0,-100.00,ESE,115,1.0,3.0,83,0.00,,,-99.99,0.000000,,2013-04-28 10:12:00,
2013-04-28 00:22:00,64.0,59.0,-100.00,ESE,115,1.0,3.0,83,0.00,,,-99.99,0.000000,,2013-04-28 10:22:00,
2013-04-28 00:32:00,64.0,59.0,-100.00,ESE,115,1.0,3.0,83,0.00,,,-99.99,0.000000,,2013-04-28 10:32:00,
2013-04-28 01:02:00,66.0,59.0,-100.00,SE,143,0.0,5.0,77,0.00,,,0.00,0.000000,,2013-04-28 11:02:00,
2013-04-28 01:11:00,66.0,59.0,-100.00,SE,143,0.0,5.0,77,0.00,,,0.00,0.000000,,2013-04-28 11:11:00,
2013-04-28 01:21:00,66.0,59.0,-100.00,SE,143,0.0,5.0,77,0.00,,,0.00,0.000000,,2013-04-28 11:21:00,
2013-04-28 01:32:00,66.0,59.0,-100.00,SE,143,0.0,5.0,77,0.00,,,0.00,0.000000,,2013-04-28 11:32:00,
2013-04-28 02:01:00,63.0,56.0,-100.00,South,178,4.0,9.0,77,0.00,,,-99.99,0.000000,,2013-04-28 12:01:00,
2013-04-28 02:11:00,63.0,56.0,-100.00,South,178,4.0,9.0,77,0.00,,,-99.99,0.000000,,2013-04-28 12:11:00,
2013-04-28 02:21:00,63.0,56.0,-100.00,South,178,4.0,9.0,77,0.00,,,-99.99,0.000000,,2013-04-28 12:21:00,
2013-04-28 02:32:00,63.0,56.0,-100.00,South,178,4.0,9.0,77,0.00,,,-99.99,0.000000,,2013-04-28 12:32:00,
2013-04-28 03:02:00,60.0,53.0,-100.00,South,176,4.0,8.0,79,0.00,,,0.00,0.000000,,2013-04-28 13:02:00,
2013-04-28 03:11:00,60.0,53.0,-100.00,South,176,4.0,8.0,79,0.00,,,0.00,0.000000,,2013-04-28 13:11:00,
2013-04-28 03:21:00,60.0,53.0,-100.00,South,176,4.0,8.0,79,0.00,,,0.00,0.000000,,2013-04-28 13:21:00,
2013-04-28 03:31:00,60.0,53.0,-100.00,South,176,4.0,8.0,79,0.00,,,0.00,0.000000,,2013-04-28 13:31:00,
2013-04-28 04:01:00,58.0,53.0,-100.00,SE,133,6.0,8.0,82,0.00,,,0.00,0.000000,,2013-04-28 14:01:00,
2013-04-28 04:11:00,58.0,53.0,-100.00,SE,133,6.0,8.0,82,0.00,,,0.00,0.000000,,2013-04-28 14:11:00,
2013-04-28 04:21:00,58.0,53.0,-100.00,SE,133,6.0,8.0,82,0.00,,,0.00,0.000000,,2013-04-28 14:21:00,
2013-04-28 04:31:00,58.0,53.0,-100.00,SE,133,6.0,8.0,82,0.00,,,0.00,0.000000,,2013-04-28 14:31:00,
2013-04-28 05:01:00,60.0,52.0,-100.00,SE,131,7.0,8.0,76,0.00,,,0.00,0.000000,,2013-04-28 15:01:00,
2013-04-28 05:12:00,60.0,52.0,-100.00,SE,131,7.0,8.0,76,0.00,,,0.00,0.000000,,2013-04-28 15:12:00,
2013-04-28 05:21:00,60.0,52.0,-100.00,SE,131,7.0,8.0,76,0.00,,,0.00,0.000000,,2013-04-28 15:21:00,
2013-04-28 05:32:00,60.0,52.0,-100.00,SE,131,7.0,8.0,76,0.00,,,0.00,0.000000,,2013-04-28 15:32:00,
2013-04-28 06:03:00,58.0,50.0,-100.00,SE,144,8.0,11.0,74,0.00,,,0.00,0.000000,,2013-04-28 16:03:00,
2013-04-28 06:13:00,58.0,50.0,-100.00,SE,144,8.0,11.0,74,0.00,,,0.00,0.000000,,2013-04-28 16:13:00,
2013-04-28 06:23:00,58.0,50.0,-100.00,SE,144,8.0,11.0,74,0.00,,,0.00,0.000000,,2013-04-28 16:23:00,
2013-04-28 06:32:00,58.0,50.0,-100.00,SE,144,8.0,11.0,74,0.00,,,0.00,0.000000,,2013-04-28 16:32:00,
2013-04-28 07:02:00,59.0,50.0,-100.00,SSE,147,6.0,11.0,71,0.00,,,0.00,27.000000,,2013-04-28 17:02:00,
2013-04-28 07:12:00,59.0,50.0,-100.00,SSE,147,6.0,11.0,71,0.00,,,0.00,27.000000,,2013-04-28 17:12:00,
2013-04-28 07:21:00,59.0,50.0,-100.00,SSE,147,6.0,11.0,71,0.00,,,0.00,27.000000,,2013-04-28 17:21:00,
2013-04-28 07:32:00,59.0,50.0,-100.00,SSE,147,6.0,11.0,71,0.00,,,0.00,27.000000,,2013-04-28 17:32:00,
2013-04-28 08:02:00,69.0,53.0,-100.00,SE,129,4.0,9.0,56,0.00,,,0.00,223.000000,,2013-04-28 18:02:00,
2013-04-28 08:12:00,69.0,53.0,-100.00,SE,129,4.0,9.0,56,0.00,,,0.00,223.000000,,2013-04-28 18:12:00,
2013-04-28 08:22:00,69.0,53.0,-100.00,SE,129,4.0,9.0,56,0.00,,,0.00,223.000000,,2013-04-28 18:22:00,
2013-04-28 08:32:00,69.0,53.0,-100.00,SE,129,4.0,9.0,56,0.00,,,0.00,223.000000,,2013-04-28 18:32:00,
2013-04-28 09:02:00,73.0,53.0,-100.00,North,358,2.0,7.0,50,0.00,,,0.00,563.000000,,2013-04-28 19:02:00,
2013-04-28 09:11:00,73.0,53.0,-100.00,North,358,2.0,7.0,50,0.00,,,0.00,563.000000,,2013-04-28 19:11:00,
2013-04-28 09:21:00,73.0,53.0,-100.00,North,358,2.0,7.0,50,0.00,,,0.00,563.000000,,2013-04-28 19:21:00,
2013-04-28 09:31:00,73.0,53.0,-100.00,North,358,2.0,7.0,50,0.00,,,0.00,563.000000,,2013-04-28 19:31:00,
2013-04-28 10:01:00,75.0,56.0,-100.00,North,357,5.0,12.0,52,0.00,,,0.00,840.000000,,2013-04-28 20:01:00,
2013-04-28 10:11:00,75.0,56.0,-100.00,North,357,5.0,12.0,52,0.00,,,0.00,840.000000,,2013-04-28 20:11:00,
2013-04-28 10:22:00,75.0,56.0,-100.00,North,357,5.0,12.0,52,0.00,,,0.00,840.000000,,2013-04-28 20:22:00,
2013-04-28 10:32:00,75.0,56.0,-100.00,North,357,5.0,12.0,52,0.00,,,0.00,840.000000,,2013-04-28 20:32:00,
2013-04-28 11:01:00,72.0,56.0,-100.00,NW,326,5.0,15.0,57,0.00,,,0.00,719.000000,,2013-04-28 21:01:00,
2013-04-28 11:11:00,72.0,56.0,-100.00,NW,326,5.0,15.0,57,0.00,,,0.00,719.000000,,2013-04-28 21:11:00,
2013-04-28 11:21:00,72.0,56.0,-100.00,NW,326,5.0,15.0,57,0.00,,,0.00,719.000000,,2013-04-28 21:21:00,
2013-04-28 11:32:00,72.0,56.0,-100.00,NW,326,5.0,15.0,57,0.00,,,0.00,719.000000,,2013-04-28 21:32:00,
2013-04-28 12:03:00,75.0,56.0,-100.00,NW,326,5.0,14.0,52,0.00,,,0.00,827.000000,,2013-04-28 22:03:00,
2013-04-28 12:12:00,75.0,56.0,-100.00,NW,326,5.0,14.0,52,0.00,,,0.00,827.000000,,2013-04-28 22:12:00,
2013-04-28 12:22:00,75.0,56.0,-100.00,NW,326,5.0,14.0,52,0.00,,,0.00,827.000000,,2013-04-28 22:22:00,
2013-04-28 12:33:00,75.0,56.0,-100.00,NW,326,5.0,14.0,52,0.00,,,0.00,827.000000,,2013-04-28 22:33:00,
2013-04-28 13:02:00,75.0,59.0,-100.00,NNW,344,7.0,16.0,57,0.00,,,0.00,611.000000,,2013-04-28 23:02:00,
2013-04-28 13:12:00,75.0,59.0,-100.00,NNW,344,7.0,16.0,57,0.00,,,0.00,611.000000,,2013-04-28 23:12:00,
2013-04-28 13:21:00,75.0,59.0,-100.00,NNW,344,7.0,16.0,57,0.00,,,0.00,611.000000,,2013-04-28 23:21:00,
2013-04-28 13:32:00,75.0,59.0,-100.00,NNW,344,7.0,16.0,57,0.00,,,0.00,611.000000,,2013-04-28 23:32:00,
2013-04-28 14:01:00,74.0,57.0,-100.00,NW,322,8.0,15.0,56,0.00,,,0.00,731.000000,,2013-04-29 00:01:00,
2013-04-28 14:11:00,74.0,57.0,-100.00,NW,322,8.0,15.0,56,0.00,,,0.00,731.000000,,2013-04-29 00:11:00,
2013-04-28 14:22:00,74.0,57.0,-100.00,NW,322,8.0,15.0,56,0.00,,,0.00,731.000000,,2013-04-29 00:22:00,
2013-04-28 14:32:00,74.0,57.0,-100.00,NW,322,8.0,15.0,56,0.00,,,0.00,731.000000,,2013-04-29 00:32:00,
2013-04-28 15:01:00,72.0,60.0,-100.00,NNW,332,8.0,16.0,65,0.00,,,0.00,518.000000,,2013-04-29 01:01:00,
2013-04-28 15:12:00,72.0,60.0,-100.00,NNW,332,8.0,16.0,65,0.00,,,0.00,518.000000,,2013-04-29 01:12:00,
2013-04-28 15:21:00,72.0,60.0,-100.00,NNW,332,8.0,16.0,65,0.00,,,0.00,518.000000,,2013-04-29 01:21:00,
2013-04-28 15:32:00,72.0,60.0,-100.00,NNW,332,8.0,16.0,65,0.00,,,0.00,518.000000,,2013-04-29 01:32:00,
2013-04-28 16:01:00,73.0,61.0,-100.00,WNW,300,7.0,13.0,67,0.00,,,0.00,271.000000,,2013-04-29 02:01:00,
2013-04-28 16:11:00,73.0,61.0,-100.00,WNW,300,7.0,13.0,67,0.00,,,0.00,271.000000,,2013-04-29 02:11:00,
2013-04-28 16:21:00,73.0,61.0,-100.00,WNW,300,7.0,13.0,67,0.00,,,0.00,271.000000,,2013-04-29 02:21:00,
2013-04-28 16:31:00,73.0,61.0,-100.00,WNW,300,7.0,13.0,67,0.00,,,0.00,271.000000,,2013-04-29 02:31:00,
2013-04-28 17:01:00,69.0,60.0,-100.00,WNW,290,5.0,12.0,72,0.00,,,0.00,255.000000,,2013-04-29 03:01:00,
2013-04-28 17:12:00,69.0,60.0,-100.00,WNW,290,5.0,12.0,72,0.00,,,0.00,255.000000,,2013-04-29 03:12:00,
2013-04-28 17:21:00,69.0,60.0,-100.00,WNW,290,5.0,12.0,72,0.00,,,0.00,255.000000,,2013-04-29 03:21:00,
2013-04-28 17:32:00,69.0,60.0,-100.00,WNW,290,5.0,12.0,72,0.00,,,0.00,255.000000,,2013-04-29 03:32:00,
2013-04-28 18:02:00,70.0,61.0,-100.00,NW,306,5.0,10.0,72,0.00,,,0.00,141.000000,,2013-04-29 04:02:00,
2013-04-28 18:13:00,70.0,61.0,-100.00,NW,306,5.0,10.0,72,0.00,,,0.00,141.000000,,2013-04-29 04:13:00,
2013-04-28 18:23:00,70.0,61.0,-100.00,NW,306,5.0,10.0,72,0.00,,,0.00,141.000000,,2013-04-29 04:23:00,
2013-04-28 18:32:00,70.0,61.0,-100.00,NW,306,5.0,10.0,72,0.00,,,0.00,141.000000,,2013-04-29 04:32:00,
2013-04-28 19:02:00,68.0,62.0,-100.00,WNW,299,6.0,9.0,80,0.00,,,0.00,22.000000,,2013-04-29 05:02:00,
2013-04-28 19:12:00,68.0,62.0,-100.00,WNW,299,6.0,9.0,80,0.00,,,0.00,22.000000,,2013-04-29 05:12:00,
2013-04-28 19:22:00,68.0,62.0,-100.00,WNW,299,6.0,9.0,80,0.00,,,0.00,22.000000,,2013-04-29 05:22:00,
2013-04-28 19:32:00,68.0,62.0,-100.00,WNW,299,6.0,9.0,80,0.00,,,0.00,22.000000,,2013-04-29 05:32:00,
2013-04-28 20:02:00,65.0,62.0,-100.00,West,260,2.0,8.0,90,0.00,,,0.00,0.000000,,2013-04-29 06:02:00,
2013-04-28 20:11:00,65.0,62.0,-100.00,West,260,2.0,8.0,90,0.00,,,0.00,0.000000,,2013-04-29 06:11:00,
2013-04-28 20:21:00,65.0,62.0,-100.00,West,260,2.0,8.0,90,0.00,,,0.00,0.000000,,2013-04-29 06:21:00,
2013-04-28 20:32:00,65.0,62.0,-100.00,West,260,2.0,8.0,90,0.00,,,0.00,0.000000,,2013-04-29 06:32:00,
2013-04-28 21:01:00,65.0,61.0,-100.00,SW,236,1.0,5.0,87,0.00,,,0.00,0.000000,,2013-04-29 07:01:00,
2013-04-28 21:11:00,65.0,61.0,-100.00,SW,236,1.0,5.0,87,0.00,,,0.00,0.000000,,2013-04-29 07:11:00,
2013-04-28 21:21:00,65.0,61.0,-100.00,SW,236,1.0,5.0,87,0.00,,,0.00,0.000000,,2013-04-29 07:21:00,
2013-04-28 21:31:00,65.0,61.0,-100.00,SW,236,1.0,5.0,87,0.00,,,0.00,0.000000,,2013-04-29 07:31:00,
2013-04-28 22:02:00,64.0,59.0,-100.00,ESE,106,0.0,4.0,85,0.00,,,0.00,0.000000,,2013-04-29 08:02:00,
2013-04-28 22:11:00,64.0,59.0,-100.00,ESE,106,0.0,4.0,85,0.00,,,0.00,0.000000,,2013-04-29 08:11:00,
2013-04-28 22:21:00,64.0,59.0,-100.00,ESE,106,0.0,4.0,85,0.00,,,0.00,0.000000,,2013-04-29 08:21:00,
2013-04-28 22:31:00,64.0,59.0,-100.00,ESE,106,0.0,4.0,85,0.00,,,0.00,0.000000,,2013-04-29 08:31:00,
2013-04-28 23:01:00,62.0,59.0,-100.00,South,169,0.0,3.0,89,0.00,,,-99.99,0.000000,,2013-04-29 09:01:00,
2013-04-28 23:11:00,62.0,59.0,-100.00,South,169,0.0,3.0,89,0.00,,,-99.99,0.000000,,2013-04-29 09:11:00,
2013-04-28 23:21:00,62.0,59.0,-100.00,South,169,0.0,3.0,89,0.00,,,-99.99,0.000000,,2013-04-29 09:21:00,
2013-04-28 23:32:00,62.0,59.0,-100.00,South,169,0.0,3.0,89,0.00,,,-99.99,0.000000,,2013-04-29 09:32:00,